createdAt,value
2018-04-25T00:00:57.572Z,7.15
2018-04-25T00:03:27.270Z,6.90
2018-04-25T00:05:57.379Z,7.03
2018-04-25T00:08:27.839Z,7.75
2018-04-25T00:10:57.524Z,7.25
2018-04-25T00:13:27.008Z,7.62
2018-04-25T00:15:56.400Z,7.90
2018-04-25T00:18:26.260Z,7.53
2018-04-25T00:20:55.935Z,6.82
2018-04-25T00:23:25.634Z,7.70
2018-04-25T00:25:55.335Z,6.60
2018-04-25T00:28:25.028Z,6.85
2018-04-25T00:30:54.035Z,7.15
2018-04-25T00:33:23.528Z,8.00
2018-04-25T00:35:53.219Z,7.18
2018-04-25T00:38:23.106Z,7.50
2018-04-25T00:40:52.154Z,7.85
2018-04-25T00:43:21.919Z,7.68
2018-04-25T00:45:50.955Z,7.22
2018-04-25T00:48:19.963Z,7.35
2018-04-25T00:50:48.987Z,7.70
2018-04-25T00:53:18.750Z,7.90
2018-04-25T00:55:47.771Z,8.20
2018-04-25T00:58:16.771Z,8.30
2018-04-25T01:00:46.563Z,8.38
2018-04-25T01:03:15.564Z,8.65
2018-04-25T01:05:44.576Z,8.75
2018-04-25T01:08:13.923Z,9.65
2018-04-25T01:10:43.623Z,8.73
2018-04-25T01:13:12.967Z,9.02
2018-04-25T01:15:42.001Z,8.25
2018-04-25T01:18:11.332Z,8.48
2018-04-25T01:20:40.355Z,8.35
2018-04-25T01:23:09.126Z,8.55
2018-04-25T01:25:40.702Z,8.63
2018-04-25T01:28:09.700Z,8.20
2018-04-25T01:30:45.924Z,8.60
2018-04-25T01:33:23.534Z,9.00
2018-04-25T01:35:58.066Z,8.65
2018-04-25T01:38:27.828Z,9.10
2018-04-25T01:40:56.851Z,9.07
2018-04-25T01:43:25.895Z,9.20
2018-04-25T01:46:09.800Z,9.05
2018-04-25T01:51:52.167Z,8.50
2018-04-25T01:54:32.991Z,9.20
2018-04-25T01:57:13.959Z,8.15
2018-04-25T01:59:54.927Z,7.90
2018-04-25T02:02:23.451Z,8.32
2018-04-25T02:04:53.881Z,7.37
2018-04-25T02:07:28.699Z,7.78
2018-04-25T02:09:58.372Z,7.37
2018-04-25T02:12:27.722Z,8.27
2018-04-25T02:14:58.163Z,8.05
2018-04-25T02:17:28.059Z,9.45
2018-04-25T02:19:58.491Z,7.85
2018-04-25T02:22:28.938Z,8.50
2018-04-25T02:24:58.624Z,9.07
2018-04-25T02:27:29.075Z,8.07
2018-04-25T02:29:58.734Z,8.48
2018-04-25T02:32:28.422Z,8.38
2018-04-25T02:34:58.112Z,8.57
2018-04-25T02:37:27.564Z,8.52
2018-04-25T02:39:57.223Z,8.35
2018-04-25T02:42:26.903Z,8.32
2018-04-25T02:44:56.588Z,9.20
2018-04-25T02:47:26.279Z,8.55
2018-04-25T02:49:55.959Z,9.52
2018-04-25T02:52:25.662Z,9.20
2018-04-25T02:54:55.351Z,9.38
2018-04-25T02:57:25.043Z,8.77
2018-04-25T02:59:55.479Z,9.07
2018-04-25T03:02:25.927Z,8.40
2018-04-25T03:04:55.611Z,8.43
2018-04-25T03:07:25.315Z,9.45
2018-04-25T03:09:55.758Z,9.05
2018-04-25T03:12:25.458Z,9.55
2018-04-25T03:14:55.150Z,9.55
2018-04-25T03:17:25.623Z,9.20
2018-04-25T03:19:55.286Z,8.85
2018-04-25T03:22:24.974Z,8.40
2018-04-25T03:24:54.675Z,10.00
2018-04-25T03:27:24.384Z,9.25
2018-04-25T03:29:54.280Z,9.05
2018-04-25T03:32:23.986Z,9.52
2018-04-25T03:34:53.679Z,10.30
2018-04-25T03:37:23.390Z,10.40
2018-04-25T03:39:53.082Z,9.75
2018-04-25T03:42:22.794Z,10.65
2018-04-25T03:44:52.495Z,10.48
2018-04-25T03:47:22.212Z,10.95
2018-04-25T03:49:51.907Z,10.07
2018-04-25T03:52:22.376Z,9.48
2018-04-25T03:54:52.146Z,10.60
2018-04-25T03:57:22.607Z,9.80
2018-04-25T03:59:52.303Z,10.05
2018-04-25T04:02:22.016Z,10.07
2018-04-25T04:04:52.840Z,9.65
2018-04-25T04:07:23.091Z,10.20
2018-04-25T04:09:52.850Z,9.68
2018-04-25T04:12:23.891Z,10.82
2018-04-25T04:14:53.671Z,10.93
2018-04-25T04:17:23.540Z,10.93
2018-04-25T04:19:53.234Z,10.25
2018-04-25T04:22:23.793Z,9.65
2018-04-25T04:24:54.574Z,10.13
2018-04-25T04:27:24.438Z,10.27
2018-04-25T04:29:54.143Z,9.88
2018-04-25T04:32:23.846Z,9.10
2018-04-25T04:34:53.340Z,9.95
2018-04-25T04:37:23.792Z,10.68
2018-04-25T04:39:53.490Z,9.02
2018-04-25T04:42:23.303Z,9.52
2018-04-25T04:44:53.252Z,10.25
2018-04-25T04:47:22.987Z,10.35
2018-04-25T04:49:52.810Z,10.45
2018-04-25T04:52:23.258Z,9.77
2018-04-25T04:54:52.976Z,9.38
2018-04-25T04:57:22.434Z,9.60
2018-04-25T04:59:52.886Z,8.73
2018-04-25T05:02:23.334Z,9.50
2018-04-25T05:04:53.035Z,9.25
2018-04-25T05:07:23.010Z,9.93
2018-04-25T05:09:52.710Z,9.00
2018-04-25T05:12:22.379Z,8.80
2018-04-25T05:14:52.067Z,7.72
2018-04-25T05:17:22.510Z,8.80
2018-04-25T05:19:52.207Z,8.98
2018-04-25T05:22:22.771Z,9.07
2018-04-25T05:24:52.469Z,8.55
2018-04-25T05:27:22.151Z,8.15
2018-04-25T05:29:52.655Z,8.98
2018-04-25T05:32:23.175Z,9.20
2018-04-25T05:34:53.727Z,8.98
2018-04-25T05:37:23.411Z,8.40
2018-04-25T05:39:53.095Z,8.20
2018-04-25T05:42:22.759Z,8.75
2018-04-25T05:44:52.451Z,8.30
2018-04-25T05:47:22.136Z,8.68
2018-04-25T05:49:51.876Z,11.05
2018-04-25T05:52:21.552Z,7.70
2018-04-25T05:54:51.428Z,7.90
2018-04-25T05:57:22.166Z,6.87
2018-04-25T05:59:51.898Z,8.32
2018-04-25T06:02:21.573Z,8.00
2018-04-25T06:04:52.043Z,7.93
2018-04-25T06:07:21.707Z,6.60
2018-04-25T06:09:51.407Z,7.53
2018-04-25T06:12:21.907Z,6.37
2018-04-25T06:14:52.351Z,6.07
2018-04-25T06:17:22.011Z,5.22
2018-04-25T06:19:51.707Z,5.57
2018-04-25T06:22:21.395Z,6.97
2018-04-25T06:24:51.885Z,5.75
2018-04-25T06:27:21.649Z,5.53
2018-04-25T06:29:52.115Z,5.05
2018-04-25T06:32:21.787Z,4.70
2018-04-25T06:34:51.539Z,5.30
2018-04-25T06:37:21.979Z,4.65
2018-04-25T06:39:51.660Z,4.82
2018-04-25T06:42:21.338Z,4.90
2018-04-25T06:44:51.055Z,4.47
2018-04-25T06:47:20.896Z,4.40
2018-04-25T06:49:50.583Z,5.40
2018-04-25T06:52:20.288Z,5.20
2018-04-25T06:54:50.324Z,4.57
2018-04-25T06:57:20.011Z,4.45
2018-04-25T06:59:49.906Z,4.90
2018-04-25T07:02:19.587Z,5.32
2018-04-25T07:04:49.489Z,4.72
2018-04-25T07:07:19.333Z,5.10
2018-04-25T07:09:49.147Z,5.53
2018-04-25T07:12:19.673Z,5.10
2018-04-25T07:14:49.543Z,4.50
2018-04-25T07:17:19.267Z,4.25
2018-04-25T07:19:49.059Z,5.15
2018-04-25T07:22:18.719Z,4.62
2018-04-25T07:24:48.983Z,4.50
2018-04-25T07:27:19.002Z,4.37
2018-04-25T07:29:48.703Z,4.00
2018-04-25T07:32:19.395Z,4.18
2018-04-25T07:34:50.061Z,4.60
2018-04-25T07:37:20.587Z,3.97
2018-04-25T07:39:50.443Z,4.43
2018-04-25T07:42:20.167Z,4.05
2018-04-25T07:44:49.850Z,3.92
2018-04-25T07:47:19.511Z,4.37
2018-04-25T07:49:50.220Z,4.20
2018-04-25T07:52:19.922Z,4.60
2018-04-25T07:54:49.815Z,4.35
2018-04-25T07:57:19.606Z,4.40
2018-04-25T07:59:49.346Z,4.12
2018-04-25T08:02:19.019Z,5.10
2018-04-25T08:04:48.698Z,4.72
2018-04-25T08:07:19.136Z,4.72
2018-04-25T08:09:49.555Z,4.70
2018-04-25T08:12:31.258Z,4.75
2018-04-25T08:15:12.147Z,4.28
2018-04-25T08:17:53.133Z,4.75
2018-04-25T08:20:34.811Z,4.90
2018-04-25T08:23:04.480Z,4.80
2018-04-25T08:25:34.951Z,4.85
2018-04-25T08:28:04.617Z,4.95
2018-04-25T08:30:34.299Z,4.30
2018-04-25T08:33:03.979Z,4.70
2018-04-25T08:35:33.663Z,4.78
2018-04-25T08:38:04.095Z,4.72
2018-04-25T08:40:34.543Z,4.68
2018-04-25T08:43:04.209Z,4.75
2018-04-25T08:45:34.672Z,5.15
2018-04-25T08:48:04.335Z,4.95
2018-04-25T08:50:34.052Z,4.93
2018-04-25T08:53:04.487Z,4.90
2018-04-25T08:55:34.955Z,5.32
2018-04-25T08:58:04.615Z,4.62
2018-04-25T09:00:35.068Z,5.40
2018-04-25T09:03:04.743Z,5.40
2018-04-25T09:05:34.415Z,4.93
2018-04-25T09:08:05.025Z,4.85
2018-04-25T09:10:34.687Z,5.07
2018-04-25T09:13:04.366Z,5.43
2018-04-25T09:15:34.072Z,5.47
2018-04-25T09:18:03.930Z,5.15
2018-04-25T09:20:33.587Z,4.60
2018-04-25T09:23:03.279Z,5.07
2018-04-25T09:25:32.954Z,5.15
2018-04-25T09:28:02.639Z,4.90
2018-04-25T09:30:31.971Z,5.10
2018-04-25T09:33:02.423Z,4.78
2018-04-25T09:35:32.085Z,4.62
2018-04-25T09:38:01.775Z,4.62
2018-04-25T09:40:31.453Z,4.97
2018-04-25T09:43:01.155Z,5.25
2018-04-25T09:45:30.847Z,5.45
2018-04-25T09:48:01.308Z,4.57
2018-04-25T09:50:30.741Z,4.40
2018-04-25T09:53:00.432Z,4.82
2018-04-25T09:55:30.097Z,4.20
2018-04-25T09:58:00.691Z,4.80
2018-04-25T10:00:35.760Z,4.65
2018-04-25T10:03:11.579Z,4.40
2018-04-25T10:05:41.226Z,4.40
2018-04-25T10:08:11.677Z,4.30
2018-04-25T10:10:41.338Z,4.50
2018-04-25T10:13:11.027Z,4.32
2018-04-25T10:15:40.694Z,4.47
2018-04-25T10:18:10.379Z,4.28
2018-04-25T10:20:40.807Z,4.30
2018-04-25T10:23:11.280Z,4.28
2018-04-25T10:25:41.214Z,4.35
2018-04-25T10:28:11.055Z,4.07
2018-04-25T10:30:41.499Z,4.15
2018-04-25T10:33:11.943Z,3.80
2018-04-25T10:35:41.611Z,4.50
2018-04-25T10:38:11.286Z,3.85
2018-04-25T10:40:40.955Z,3.80
2018-04-25T10:43:11.403Z,3.80
2018-04-25T10:45:41.062Z,3.53
2018-04-25T10:48:10.756Z,3.42
2018-04-25T10:50:40.410Z,3.72
2018-04-25T10:53:10.105Z,4.15
2018-04-25T10:55:40.546Z,3.80
2018-04-25T10:58:11.523Z,3.60
2018-04-25T11:00:41.199Z,3.95
2018-04-25T11:03:10.885Z,3.87
2018-04-25T11:05:41.319Z,3.15
2018-04-25T11:08:11.776Z,3.58
2018-04-25T11:10:41.437Z,3.75
2018-04-25T11:13:11.978Z,3.67
2018-04-25T11:15:42.415Z,4.15
2018-04-25T11:18:12.350Z,3.60
2018-04-25T11:20:42.312Z,3.62
2018-04-25T11:23:11.983Z,3.60
2018-04-25T11:25:41.643Z,3.65
2018-04-25T11:28:11.647Z,3.78
2018-04-25T11:30:41.491Z,3.47
2018-04-25T11:33:12.035Z,3.58
2018-04-25T11:35:41.702Z,3.50
2018-04-25T11:38:11.429Z,4.30
2018-04-25T11:40:41.864Z,3.80
2018-04-25T11:43:12.327Z,3.60
2018-04-25T11:45:42.006Z,3.60
2018-04-25T11:48:11.702Z,3.50
2018-04-25T11:50:42.129Z,3.67
2018-04-25T11:53:12.718Z,3.50
2018-04-25T11:55:43.070Z,3.40
2018-04-25T11:58:12.983Z,3.90
2018-04-25T12:00:42.699Z,3.90
2018-04-25T12:03:12.456Z,3.70
2018-04-25T12:05:42.134Z,3.40
2018-04-25T12:08:12.666Z,3.67
2018-04-25T12:10:42.469Z,3.70
2018-04-25T12:13:12.329Z,4.07
2018-04-25T12:15:43.225Z,3.78
2018-04-25T12:18:13.667Z,3.90
2018-04-25T12:20:43.337Z,3.90
2018-04-25T12:23:13.782Z,4.03
2018-04-25T12:25:44.217Z,3.90
2018-04-25T12:28:14.754Z,4.07
2018-04-25T12:30:44.423Z,4.50
2018-04-25T12:33:14.140Z,4.07
2018-04-25T12:35:44.684Z,4.62
2018-04-25T12:38:15.327Z,4.65
2018-04-25T12:40:44.991Z,5.22
2018-04-25T12:43:14.699Z,4.65
2018-04-25T12:45:44.860Z,4.97
2018-04-25T12:48:15.505Z,4.32
2018-04-25T12:50:45.171Z,4.85
2018-04-25T12:53:14.962Z,4.57
2018-04-25T12:55:44.627Z,4.80
2018-04-25T12:58:14.311Z,5.07
2018-04-25T13:00:44.768Z,4.95
2018-04-25T13:03:14.195Z,4.28
2018-04-25T13:05:43.884Z,4.20
2018-04-25T13:08:13.549Z,4.30
2018-04-25T13:10:43.210Z,4.40
2018-04-25T13:13:12.880Z,4.70
2018-04-25T13:15:43.411Z,4.28
2018-04-25T13:18:20.499Z,4.28
2018-04-25T13:20:51.103Z,3.97
2018-04-25T13:23:20.762Z,4.25
2018-04-25T13:25:50.452Z,4.50
2018-04-25T13:28:20.855Z,4.50
2018-04-25T13:30:51.316Z,4.00
2018-04-25T13:33:20.983Z,4.45
2018-04-25T13:35:50.663Z,4.10
2018-04-25T13:38:20.315Z,3.83
2018-04-25T13:40:50.762Z,4.45
2018-04-25T13:43:20.423Z,4.45
2018-04-25T13:45:50.115Z,4.05
2018-04-25T13:48:19.811Z,4.15
2018-04-25T13:50:49.262Z,4.18
2018-04-25T13:53:18.692Z,4.00
2018-04-25T13:55:48.379Z,4.50
2018-04-25T13:58:18.807Z,3.97
2018-04-25T14:00:49.280Z,3.40
2018-04-25T14:03:18.826Z,4.50
2018-04-25T14:05:48.495Z,4.07
2018-04-25T14:08:18.167Z,3.90
2018-04-25T14:10:48.391Z,4.18
2018-04-25T14:13:18.827Z,4.07
2018-04-25T14:15:48.931Z,4.00
2018-04-25T14:18:19.347Z,4.18
2018-04-25T14:20:50.924Z,4.00
2018-04-25T14:23:22.248Z,4.10
2018-04-25T14:25:52.478Z,3.80
2018-04-25T14:28:23.007Z,3.62
2018-04-25T14:30:53.450Z,3.80
2018-04-25T14:33:23.118Z,3.97
2018-04-25T14:35:52.791Z,4.35
2018-04-25T14:38:22.451Z,3.92
2018-04-25T14:40:52.114Z,4.10
2018-04-25T14:43:22.555Z,4.25
2018-04-25T14:45:52.234Z,4.05
2018-04-25T14:48:21.919Z,3.58
2018-04-25T14:50:52.354Z,3.47
2018-04-25T14:53:22.035Z,3.50
2018-04-25T14:55:51.711Z,4.20
2018-04-25T14:58:21.159Z,3.40
2018-04-25T15:00:51.611Z,3.85
2018-04-25T15:03:21.282Z,3.03
2018-04-25T15:05:51.747Z,3.10
2018-04-25T15:08:21.399Z,3.03
2018-04-25T15:10:51.094Z,2.70
2018-04-25T15:13:20.759Z,3.00
2018-04-25T15:15:50.457Z,2.90
2018-04-25T15:18:20.903Z,2.70
2018-04-25T15:20:50.365Z,2.53
2018-04-25T15:23:20.043Z,2.92
2018-04-25T15:25:49.719Z,2.30
2018-04-25T15:28:19.411Z,2.53
2018-04-25T15:30:49.855Z,2.90
2018-04-25T15:33:19.566Z,3.22
2018-04-25T15:35:49.257Z,2.85
2018-04-25T15:38:19.739Z,2.65
2018-04-25T15:40:49.410Z,3.08
2018-04-25T15:43:19.114Z,2.75
2018-04-25T15:45:48.454Z,2.42
2018-04-25T15:48:18.154Z,2.45
2018-04-25T15:50:47.595Z,3.12
2018-04-25T15:53:17.137Z,2.40
2018-04-25T15:55:47.036Z,2.42
2018-04-25T15:58:16.771Z,2.40
2018-04-25T16:00:46.447Z,2.70
2018-04-25T16:03:16.914Z,2.35
2018-04-25T16:05:46.694Z,2.60
2018-04-25T16:08:16.857Z,2.45
2018-04-25T16:10:47.254Z,2.30
2018-04-25T16:13:17.685Z,2.80
2018-04-25T16:15:47.346Z,2.60
2018-04-25T16:18:17.772Z,2.60
2018-04-25T16:20:47.526Z,2.30
2018-04-25T16:23:17.426Z,2.30
2018-04-25T16:25:47.311Z,2.67
2018-04-25T16:28:18.250Z,2.60
2018-04-25T16:30:49.791Z,2.53
2018-04-25T16:33:20.371Z,2.62
2018-04-25T16:35:50.102Z,2.70
2018-04-25T16:38:19.830Z,3.00
2018-04-25T16:40:49.539Z,2.60
2018-04-25T16:43:19.215Z,3.05
2018-04-25T16:45:48.911Z,3.70
2018-04-25T16:48:18.587Z,2.40
2018-04-25T16:50:48.288Z,2.70
2018-04-25T16:53:17.961Z,2.78
2018-04-25T16:55:47.711Z,2.72
2018-04-25T16:58:17.498Z,2.72
2018-04-25T17:00:47.196Z,2.87
2018-04-25T17:03:16.863Z,2.55
2018-04-25T17:05:46.602Z,2.47
2018-04-25T17:08:16.283Z,2.65
2018-04-25T17:10:46.879Z,2.53
2018-04-25T17:13:16.595Z,2.20
2018-04-25T17:15:57.020Z,2.37
2018-04-25T17:18:26.695Z,2.62
2018-04-25T17:20:57.339Z,2.40
2018-04-25T17:23:26.591Z,2.63
2018-04-25T17:25:56.323Z,2.80
2018-04-25T17:28:26.185Z,2.53
2018-04-25T17:30:57.007Z,2.87
2018-04-25T17:33:26.863Z,2.80
2018-04-25T17:35:57.344Z,2.95
2018-04-25T17:38:27.484Z,2.72
2018-04-25T17:40:58.311Z,3.00
2018-04-25T17:43:27.967Z,4.65
2018-04-25T17:45:57.883Z,3.30
2018-04-25T17:48:27.918Z,3.28
2018-04-25T17:50:58.399Z,2.80
2018-04-25T17:53:28.173Z,2.90
2018-04-25T17:55:58.627Z,2.90
2018-04-25T17:58:28.644Z,2.90
2018-04-25T18:00:58.633Z,2.97
2018-04-25T18:03:29.265Z,3.00
2018-04-25T18:05:59.359Z,3.33
2018-04-25T18:08:29.018Z,3.00
2018-04-25T18:10:58.743Z,2.70
2018-04-25T18:13:28.612Z,2.70
2018-04-25T18:15:58.383Z,3.00
2018-04-25T18:18:28.056Z,2.67
2018-04-25T18:20:57.407Z,2.90
2018-04-25T18:23:27.847Z,2.62
2018-04-25T18:25:58.309Z,2.58
2018-04-25T18:28:27.982Z,2.50
2018-04-25T18:30:58.440Z,2.58
2018-04-25T18:33:28.107Z,2.95
2018-04-25T18:35:58.339Z,2.37
2018-04-25T18:38:28.779Z,2.10
2018-04-25T18:40:58.488Z,1.80
2018-04-25T18:43:28.154Z,1.73
2018-04-25T18:45:57.910Z,1.70
2018-04-25T18:48:28.341Z,2.00
2018-04-25T18:50:58.036Z,2.10
2018-04-25T18:53:27.775Z,1.95
2018-04-25T18:55:57.463Z,1.60
2018-04-25T18:58:27.138Z,1.90
2018-04-25T19:00:56.835Z,1.80
2018-04-25T19:03:26.507Z,2.00
2018-04-25T19:05:56.260Z,1.70
2018-04-25T19:08:25.920Z,2.25
2018-04-25T19:10:55.615Z,3.53
2018-04-25T19:13:25.283Z,1.98
2018-04-25T19:15:54.978Z,1.80
2018-04-25T19:18:24.646Z,1.60
2018-04-25T19:20:54.340Z,1.45
2018-04-25T19:23:24.775Z,1.60
2018-04-25T19:25:54.480Z,1.58
2018-04-25T19:28:24.348Z,2.22
2018-04-25T19:30:54.036Z,1.70
2018-04-25T19:33:23.758Z,1.70
2018-04-25T19:35:53.464Z,1.80
2018-04-25T19:38:23.187Z,1.62
2018-04-25T19:40:52.878Z,1.70
2018-04-25T19:43:22.571Z,1.80
2018-04-25T19:45:52.294Z,1.73
2018-04-25T19:48:21.975Z,1.52
2018-04-25T19:50:51.671Z,1.55
2018-04-25T19:53:22.388Z,1.45
2018-04-25T19:55:52.088Z,1.60
2018-04-25T19:58:21.755Z,1.50
2018-04-25T20:00:51.470Z,1.70
2018-04-25T20:03:21.138Z,1.73
2018-04-25T20:05:51.603Z,1.67
2018-04-25T20:08:21.327Z,1.58
2018-04-25T20:10:51.722Z,1.40
2018-04-25T20:13:21.168Z,1.65
2018-04-25T20:15:50.910Z,1.50
2018-04-25T20:18:21.379Z,1.58
2018-04-25T20:20:51.049Z,1.50
2018-04-25T20:23:21.540Z,1.50
2018-04-25T20:25:51.212Z,1.30
2018-04-25T20:28:20.907Z,1.30
2018-04-25T20:30:50.591Z,1.70
2018-04-25T20:33:20.283Z,1.50
2018-04-25T20:35:49.945Z,1.60
2018-04-25T20:38:19.643Z,1.35
2018-04-25T20:40:49.331Z,1.50
2018-04-25T20:43:19.018Z,1.50
2018-04-25T20:45:48.687Z,1.40
2018-04-25T20:48:18.384Z,1.25
2018-04-25T20:50:48.075Z,1.37
2018-04-25T20:53:18.527Z,1.50
2018-04-25T20:55:48.194Z,1.20
2018-04-25T20:58:17.889Z,1.52
2018-04-25T21:00:47.559Z,1.50
2018-04-25T21:03:17.019Z,1.55
2018-04-25T21:05:46.695Z,1.42
2018-04-25T21:08:16.391Z,1.40
2018-04-25T21:10:46.062Z,1.30
2018-04-25T21:13:16.515Z,1.40
2018-04-25T21:15:46.192Z,1.90
2018-04-25T21:18:16.656Z,1.80
2018-04-25T21:20:46.544Z,1.70
2018-04-25T21:23:17.004Z,1.73
2018-04-25T21:25:46.694Z,1.90
2018-04-25T21:28:16.387Z,2.95
2018-04-25T21:30:46.823Z,1.75
2018-04-25T21:33:16.527Z,2.17
2018-04-25T21:35:46.959Z,1.48
2018-04-25T21:38:16.650Z,1.45
2018-04-25T21:40:47.091Z,1.80
2018-04-25T21:43:16.788Z,1.55
2018-04-25T21:45:47.235Z,1.80
2018-04-25T21:48:16.933Z,1.75
2018-04-25T21:50:47.371Z,1.50
2018-04-25T21:53:17.075Z,1.55
2018-04-25T21:55:46.852Z,1.58
2018-04-25T21:58:16.530Z,1.50
2018-04-25T22:00:46.215Z,1.83
2018-04-25T22:03:15.915Z,1.85
2018-04-25T22:05:46.352Z,1.50
2018-04-25T22:08:16.040Z,1.30
2018-04-25T22:10:46.488Z,1.87
2018-04-25T22:13:15.946Z,1.80
2018-04-25T22:15:45.611Z,1.23
2018-04-25T22:18:15.301Z,1.37
2018-04-25T22:20:44.979Z,1.50
2018-04-25T22:23:14.658Z,1.60
2018-04-25T22:25:44.333Z,1.52
2018-04-25T22:28:14.024Z,1.40
2018-04-25T22:30:44.455Z,1.35
2018-04-25T22:33:14.912Z,1.45
2018-04-25T22:35:44.584Z,1.50
2018-04-25T22:38:15.043Z,1.50
2018-04-25T22:40:44.474Z,1.30
2018-04-25T22:43:13.927Z,1.25
2018-04-25T22:45:43.603Z,1.45
2018-04-25T22:48:13.291Z,1.50
2018-04-25T22:50:42.971Z,1.60
2018-04-25T22:53:12.659Z,1.40
2018-04-25T22:55:43.095Z,1.35
2018-04-25T22:58:12.788Z,1.73
2018-04-25T23:00:43.231Z,1.62
2018-04-25T23:03:12.691Z,1.37
2018-04-25T23:05:42.374Z,1.45
2018-04-25T23:08:12.097Z,1.48
2018-04-25T23:10:41.960Z,1.50
2018-04-25T23:13:11.659Z,1.45
2018-04-25T23:15:42.099Z,1.77
2018-04-25T23:18:11.801Z,1.60
2018-04-25T23:20:42.252Z,1.50
2018-04-25T23:23:11.960Z,1.60
2018-04-25T23:25:41.627Z,1.60
2018-04-25T23:28:12.104Z,1.40
2018-04-25T23:30:41.780Z,1.25
2018-04-25T23:33:12.235Z,1.40
2018-04-25T23:35:41.903Z,1.40
2018-04-25T23:38:12.366Z,1.67
2018-04-25T23:40:42.084Z,1.77
2018-04-25T23:43:11.968Z,1.60
2018-04-25T23:45:42.424Z,1.67
2018-04-25T23:48:12.094Z,1.60
2018-04-25T23:50:44.612Z,1.70
2018-04-25T23:53:14.783Z,1.50
2018-04-25T23:55:45.248Z,1.98
2018-04-25T23:58:14.923Z,1.85
